Time;durP1;ratioP1;P1;durP2;ratioP2;P2;SDS_P1;SDS_P2;PMS_P1;PMS_P2;Temp;Humidity;BMP_temperature;BMP_pressure;BME280_temperature;BME280_humidity;BME280_pressure;Samples;Min_cycle;Max_cycle;Signal;HPM_P1;HPM_P2
2022/10/07 16:40:54;;;;;;;6.33;1.50;;;18.50;54.40;;;;;;7215783;19;20275;-76
2022/10/07 16:46:03;;;;;;;4.07;1.30;;;18.30;55.90;;;;;;7363457;19;20613;-77
2022/10/07 16:48:33;;;;;;;5.43;1.00;;;18.00;56.00;;;;;;7391121;19;20493;-77
2022/10/07 16:51:02;;;;;;;11.80;1.52;;;18.00;56.60;;;;;;7390226;19;20082;-78
2022/10/07 16:53:31;;;;;;;7.97;1.50;;;17.90;56.70;;;;;;7377505;19;20015;-78
2022/10/07 16:56:06;;;;;;;8.48;1.48;;;17.90;56.70;;;;;;7389441;19;20021;-77
2022/10/07 16:58:37;;;;;;;8.57;1.40;;;17.80;56.90;;;;;;7390441;19;20014;-77
2022/10/07 17:01:08;;;;;;;20.30;1.40;;;17.70;57.10;;;;;;7391402;19;20015;-77
2022/10/07 17:03:41;;;;;;;13.10;1.90;;;17.60;57.20;;;;;;7393439;19;20030;-78
2022/10/07 17:06:14;;;;;;;6.90;1.42;;;17.50;57.30;;;;;;7390442;19;20018;-78
2022/10/07 17:08:54;;;;;;;8.68;1.50;;;17.50;57.50;;;;;;7391278;19;20555;-79
2022/10/07 17:11:32;;;;;;;17.50;1.40;;;17.50;57.80;;;;;;7391091;19;20334;-78
2022/10/07 17:14:04;;;;;;;8.02;1.40;;;17.40;57.90;;;;;;7394805;19;20311;-79
2022/10/07 17:16:36;;;;;;;9.27;1.15;;;17.40;58.00;;;;;;7393128;19;20030;-78
2022/10/07 17:19:05;;;;;;;5.13;1.15;;;17.30;58.00;;;;;;7392435;19;20567;-78
2022/10/07 17:21:36;;;;;;;8.75;1.77;;;17.30;58.00;;;;;;7393088;19;20054;-78
2022/10/07 17:24:06;;;;;;;5.90;1.67;;;17.20;58.30;;;;;;7394465;19;20021;-77
2022/10/07 17:26:38;;;;;;;9.30;1.40;;;17.20;58.40;;;;;;7396294;19;20042;-77
2022/10/07 17:29:10;;;;;;;11.00;1.48;;;17.10;58.60;;;;;;7397028;19;20121;-77
2022/10/07 17:31:42;;;;;;;6.28;1.45;;;17.20;58.90;;;;;;7402209;19;20013;-77
2022/10/07 17:34:14;;;;;;;;;;;17.10;59.10;;;;;;7398990;19;20018;-77
2022/10/07 17:36:44;;;;;;;34.78;2.05;;;17.20;59.30;;;;;;7402550;19;19918;-77
2022/10/07 17:39:13;;;;;;;8.40;1.35;;;17.10;59.20;;;;;;7401620;19;20331;-76
2022/10/07 17:41:45;;;;;;;9.52;1.58;;;17.10;59.30;;;;;;7400217;19;20015;-76
2022/10/07 17:44:15;;;;;;;10.75;2.10;;;17.00;59.20;;;;;;7397997;19;20090;-77
2022/10/07 17:46:44;;;;;;;10.40;1.55;;;17.00;59.30;;;;;;7400846;19;20097;-76
2022/10/07 17:49:14;;;;;;;11.48;1.55;;;16.90;59.40;;;;;;7400199;19;20038;-76
2022/10/07 17:51:44;;;;;;;12.10;1.83;;;16.90;59.50;;;;;;7401358;19;20010;-77
2022/10/07 17:54:14;;;;;;;5.93;1.33;;;16.90;59.60;;;;;;7401325;19;20018;-76
2022/10/07 17:56:46;;;;;;;6.55;1.30;;;16.80;59.70;;;;;;7398284;19;20014;-76
2022/10/07 17:59:15;;;;;;;10.38;1.98;;;16.80;60.00;;;;;;7397850;19;20045;-77
2022/10/07 18:01:44;;;;;;;11.02;1.70;;;16.70;60.10;;;;;;7400836;19;20022;-78
2022/10/07 18:04:17;;;;;;;12.77;1.60;;;16.70;60.40;;;;;;7398857;19;20381;-75
2022/10/07 18:06:46;;;;;;;11.60;1.83;;;16.70;60.60;;;;;;7399253;19;20015;-78
2022/10/07 18:09:18;;;;;;;12.93;2.28;;;16.70;60.80;;;;;;7397706;19;20070;-78
2022/10/07 18:17:12;;;;;;;15.20;2.15;;;16.50;61.40;;;;;;7400493;19;20313;-77
2022/10/07 18:19:41;;;;;;;7.15;1.83;;;16.50;61.30;;;;;;7399844;19;20018;-77
2022/10/07 18:22:10;;;;;;;6.50;2.08;;;16.50;61.40;;;;;;7399414;19;20035;-77
2022/10/07 18:24:39;;;;;;;12.50;2.33;;;16.50;61.30;;;;;;7396483;19;20083;-78
2022/10/07 18:27:11;;;;;;;7.05;2.50;;;16.50;61.60;;;;;;7400471;19;20610;-77
2022/10/07 18:29:40;;;;;;;18.38;3.05;;;16.40;61.80;;;;;;7400197;19;20086;-77
2022/10/07 18:32:09;;;;;;;11.00;2.40;;;16.40;62.00;;;;;;7397308;19;20108;-77
2022/10/07 18:34:38;;;;;;;14.07;3.17;;;16.40;62.20;;;;;;7399801;19;20908;-77
2022/10/07 18:37:07;;;;;;;11.00;3.55;;;16.30;62.40;;;;;;7395128;19;20023;-78
2022/10/07 18:39:36;;;;;;;15.10;3.78;;;16.30;62.60;;;;;;7391733;19;20011;-76
2022/10/07 18:42:05;;;;;;;12.88;3.10;;;16.30;62.80;;;;;;7391257;19;20006;-78
2022/10/07 18:44:37;;;;;;;10.70;3.05;;;16.20;62.80;;;;;;7366390;19;20018;-77
2022/10/07 18:47:06;;;;;;;14.35;2.97;;;16.20;62.90;;;;;;7370023;19;20010;-77
2022/10/07 18:49:35;;;;;;;15.50;3.47;;;16.20;62.80;;;;;;7370703;19;20039;-78
2022/10/07 18:52:06;;;;;;;13.15;3.60;;;16.20;62.80;;;;;;7367995;19;20531;-77
2022/10/07 18:54:34;;;;;;;16.80;4.38;;;16.20;63.10;;;;;;7390287;19;20014;-78
2022/10/07 18:57:03;;;;;;;10.07;3.58;;;16.20;63.30;;;;;;7371662;19;20007;-77
2022/10/07 19:00:01;;;;;;;15.68;3.75;;;16.10;63.10;;;;;;7374623;19;20394;-79
2022/10/07 19:02:29;;;;;;;21.60;3.30;;;16.10;63.10;;;;;;7383335;19;20492;-80
2022/10/07 19:04:58;;;;;;;11.57;2.95;;;16.10;63.00;;;;;;7386498;19;20097;-79
2022/10/07 19:07:29;;;;;;;9.50;2.88;;;16.10;63.00;;;;;;7377910;19;20019;-79
2022/10/07 19:09:58;;;;;;;10.83;4.10;;;16.10;63.10;;;;;;7400662;19;20018;-80
2022/10/07 19:15:12;;;;;;;14.27;3.40;;;16.00;63.40;;;;;;7376582;19;20396;-79
2022/10/07 19:17:41;;;;;;;10.50;3.10;;;16.00;63.60;;;;;;7375872;19;20019;-79
2022/10/07 19:20:10;;;;;;;10.93;2.63;;;16.00;63.50;;;;;;7375901;19;20091;-79
2022/10/07 19:22:39;;;;;;;15.23;3.35;;;16.00;63.50;;;;;;7374407;19;20032;-79
2022/10/07 19:27:51;;;;;;;11.43;3.92;;;15.90;63.60;;;;;;7396877;19;20019;-79
2022/10/07 19:30:23;;;;;;;17.88;5.00;;;15.90;63.50;;;;;;7375329;19;20022;-79
2022/10/07 19:32:53;;;;;;;14.57;4.00;;;15.80;63.70;;;;;;7374831;19;20010;-79
2022/10/07 19:35:22;;;;;;;14.40;5.32;;;15.80;63.90;;;;;;7373108;19;20077;-79
2022/10/07 19:37:52;;;;;;;17.65;5.40;;;15.70;64.10;;;;;;7373515;19;20010;-80
2022/10/07 19:40:21;;;;;;;16.13;4.70;;;15.70;64.20;;;;;;7375626;19;20028;-79
2022/10/07 19:42:52;;;;;;;14.68;4.50;;;15.60;64.40;;;;;;7393037;19;20035;-79
2022/10/07 19:45:23;;;;;;;15.38;5.32;;;15.60;65.30;;;;;;7372878;19;20018;-79
2022/10/07 19:47:52;;;;;;;15.20;4.82;;;15.60;64.40;;;;;;7375084;19;20076;-79
2022/10/07 19:50:21;;;;;;;15.48;4.60;;;15.60;64.40;;;;;;7376708;19;20028;-79
2022/10/07 19:52:55;;;;;;;14.07;4.57;;;15.60;64.40;;;;;;7376617;19;20035;-79
2022/10/07 19:55:36;;;;;;;16.30;4.88;;;15.60;64.50;;;;;;7379123;19;20449;-79
2022/10/07 19:58:05;;;;;;;14.67;5.47;;;15.60;64.50;;;;;;7378362;19;20025;-78
2022/10/07 20:00:37;;;;;;;15.48;6.28;;;15.50;64.60;;;;;;7396138;19;20022;-79
2022/10/07 20:03:06;;;;;;;20.13;6.60;;;15.50;64.60;;;;;;7377654;19;20496;-79
2022/10/07 20:05:35;;;;;;;17.02;6.20;;;15.50;64.70;;;;;;7373461;19;20074;-79
2022/10/07 20:08:04;;;;;;;28.27;7.78;;;15.40;64.80;;;;;;7377190;19;20011;-78
2022/10/07 20:10:33;;;;;;;20.27;8.45;;;15.40;65.00;;;;;;7379327;19;20019;-79
2022/10/07 20:13:03;;;;;;;25.95;9.05;;;15.40;65.00;;;;;;7383397;19;20329;-79
2022/10/07 20:15:32;;;;;;;25.77;8.90;;;15.30;64.90;;;;;;7406920;19;19998;-78
2022/10/07 20:18:03;;;;;;;20.65;7.70;;;15.30;65.00;;;;;;7398460;19;20017;-79
2022/10/07 20:20:32;;;;;;;24.73;7.45;;;15.30;65.10;;;;;;7390443;19;20015;-79
2022/10/07 20:23:01;;;;;;;22.05;5.57;;;15.30;65.00;;;;;;7374471;19;20027;-78
2022/10/07 20:25:30;;;;;;;14.13;6.10;;;15.20;65.00;;;;;;7378628;19;20015;-79
2022/10/07 20:27:59;;;;;;;14.95;5.15;;;15.30;65.00;;;;;;7404284;19;20006;-81
2022/10/07 20:30:28;;;;;;;19.95;6.20;;;15.30;64.70;;;;;;7416073;19;20014;-78
2022/10/07 20:32:57;;;;;;;14.20;5.57;;;15.30;64.90;;;;;;7385009;19;20018;-78
2022/10/07 20:35:29;;;;;;;15.63;5.57;;;15.30;65.10;;;;;;7377094;19;20010;-79
2022/10/07 20:37:58;;;;;;;;;;;15.20;65.00;;;;;;7374254;19;20014;-79
2022/10/07 20:43:08;;;;;;;21.98;6.35;;;15.20;65.10;;;;;;7375761;19;20614;-79
2022/10/07 20:45:54;;;;;;;19.25;6.50;;;15.20;65.00;;;;;;7393404;19;20022;-78
2022/10/07 20:48:24;;;;;;;17.40;6.22;;;15.20;65.00;;;;;;7373598;19;20293;-79
2022/10/07 20:50:55;;;;;;;15.60;5.88;;;15.20;64.80;;;;;;7372630;19;20046;-80
2022/10/07 20:53:24;;;;;;;23.38;5.57;;;15.10;64.90;;;;;;7372250;19;20064;-79
2022/10/07 20:55:53;;;;;;;16.80;6.53;;;15.10;65.10;;;;;;7372108;19;20014;-78
2022/10/07 20:58:22;;;;;;;16.08;6.55;;;15.00;65.10;;;;;;7371497;19;20344;-79
2022/10/07 21:00:51;;;;;;;25.00;8.30;;;15.00;65.20;;;;;;7394090;19;20111;-78
2022/10/07 21:03:21;;;;;;;19.30;6.60;;;15.00;65.30;;;;;;7372496;19;20022;-78
2022/10/07 21:06:02;;;;;;;17.90;5.72;;;15.00;66.10;;;;;;7370093;19;20010;-78
2022/10/07 21:08:32;;;;;;;15.90;5.75;;;15.00;65.20;;;;;;7371756;19;20014;-77
2022/10/07 21:11:02;;;;;;;18.20;5.60;;;15.10;65.00;;;;;;7378790;19;20027;-79
2022/10/07 21:13:32;;;;;;;18.25;5.03;;;15.10;65.00;;;;;;7385885;19;20018;-78
2022/10/07 21:16:02;;;;;;;19.38;6.03;;;15.10;65.70;;;;;;7385980;19;20023;-79
2022/10/07 21:18:31;;;;;;;19.90;5.35;;;15.10;64.70;;;;;;7408568;19;20019;-80
2022/10/07 21:21:03;;;;;;;16.80;5.68;;;15.10;64.70;;;;;;7388766;19;20030;-79
2022/10/07 21:23:32;;;;;;;;;;;15.00;64.80;;;;;;7387187;19;20022;-79
2022/10/07 21:26:03;;;;;;;13.60;4.63;;;15.10;64.80;;;;;;7387512;19;19911;-79
2022/10/07 21:28:35;;;;;;;23.55;5.65;;;15.00;64.80;;;;;;7382751;19;20034;-79
2022/10/07 21:31:07;;;;;;;11.18;4.65;;;14.90;64.70;;;;;;7376648;19;20018;-79
2022/10/07 21:33:38;;;;;;;15.15;4.95;;;15.00;65.00;;;;;;7402065;19;20019;-79
2022/10/07 21:36:14;;;;;;;14.80;5.25;;;14.90;64.90;;;;;;7390078;19;20018;-78
2022/10/07 21:38:43;;;;;;;16.73;5.35;;;14.90;65.10;;;;;;7396762;19;20050;-78
2022/10/07 21:41:14;;;;;;;15.52;5.20;;;14.90;64.90;;;;;;7397313;19;20022;-79
2022/10/07 21:43:46;;;;;;;17.85;5.78;;;14.90;64.90;;;;;;7396915;19;20144;-78
2022/10/07 21:46:15;;;;;;;16.42;6.15;;;14.90;65.10;;;;;;7389817;19;20015;-78
2022/10/07 21:48:44;;;;;;;21.02;6.40;;;14.80;65.20;;;;;;7407313;19;20007;-78
2022/10/07 21:51:16;;;;;;;18.02;5.97;;;14.80;65.40;;;;;;7385241;19;20035;-78
2022/10/07 21:53:45;;;;;;;15.15;5.72;;;14.80;65.60;;;;;;7388675;19;20042;-78
2022/10/07 21:56:15;;;;;;;17.25;5.40;;;14.80;65.20;;;;;;7394732;19;20034;-78
2022/10/07 21:58:45;;;;;;;18.77;5.80;;;14.80;65.20;;;;;;7388455;19;20022;-78
2022/10/07 22:01:18;;;;;;;16.48;5.57;;;14.80;65.30;;;;;;7382696;19;20034;-78
2022/10/07 22:03:54;;;;;;;12.48;5.68;;;14.80;65.20;;;;;;7394937;19;20567;-78
2022/10/07 22:09:08;;;;;;;12.07;5.25;;;14.80;64.90;;;;;;7369922;19;20014;-78
2022/10/07 22:11:37;;;;;;;19.70;5.45;;;14.90;65.00;;;;;;7376913;19;20024;-78
2022/10/07 22:14:06;;;;;;;19.38;5.80;;;14.80;64.90;;;;;;7376402;19;20014;-78
2022/10/07 22:16:36;;;;;;;15.50;4.72;;;14.80;64.80;;;;;;7374523;19;20026;-78
2022/10/07 22:19:06;;;;;;;13.57;5.60;;;14.80;64.70;;;;;;7376746;19;20010;-78
2022/10/07 22:21:40;;;;;;;19.00;5.60;;;14.80;64.50;;;;;;7395048;19;20037;-78
2022/10/07 22:24:10;;;;;;;19.02;5.38;;;14.70;64.60;;;;;;7374958;19;20066;-78
2022/10/07 22:26:43;;;;;;;21.50;6.20;;;14.70;64.60;;;;;;7377267;19;20089;-79
2022/10/07 22:29:12;;;;;;;21.38;5.25;;;14.70;64.60;;;;;;7373579;19;20018;-79
2022/10/07 22:31:41;;;;;;;18.00;5.03;;;14.70;64.70;;;;;;7375017;19;20023;-78
2022/10/07 22:35:26;;;;;;;20.15;5.30;;;14.70;64.70;;;;;;7373795;19;20026;-78
2022/10/07 22:37:03;;;;;;;16.23;5.13;;;14.70;64.60;;;;;;7391076;19;20014;-78
2022/10/07 22:39:32;;;;;;;16.98;5.40;;;14.70;64.70;;;;;;7398563;19;20014;-78
2022/10/07 22:42:02;;;;;;;18.58;5.03;;;14.70;64.60;;;;;;7375411;19;20018;-80
2022/10/07 22:44:31;;;;;;;12.77;5.70;;;14.60;64.60;;;;;;7375197;19;20035;-81
2022/10/07 22:47:01;;;;;;;10.90;5.60;;;14.60;64.70;;;;;;7375008;19;20457;-79
2022/10/07 22:49:31;;;;;;;14.90;5.43;;;14.60;64.80;;;;;;7377505;19;20010;-79
2022/10/07 22:52:02;;;;;;;13.05;5.30;;;14.60;64.80;;;;;;7391223;19;20042;-79
2022/10/07 22:54:31;;;;;;;14.27;5.07;;;14.50;64.70;;;;;;7395410;19;20022;-79
2022/10/07 22:57:01;;;;;;;23.33;6.20;;;14.50;64.70;;;;;;7376242;19;20015;-79
2022/10/07 22:59:30;;;;;;;17.60;6.03;;;14.50;64.70;;;;;;7375589;19;20031;-78
2022/10/07 23:01:59;;;;;;;22.77;6.70;;;14.50;64.70;;;;;;7374824;19;20014;-79
2022/10/07 23:04:27;;;;;;;15.35;5.93;;;14.40;65.00;;;;;;7374354;19;20078;-78
2022/10/07 23:06:58;;;;;;;29.73;6.70;;;14.40;65.10;;;;;;7396216;19;20089;-78
2022/10/07 23:09:30;;;;;;;20.17;5.90;;;14.40;65.30;;;;;;7374809;19;20025;-78
2022/10/07 23:11:59;;;;;;;18.17;6.32;;;14.20;65.60;;;;;;7373657;19;20022;-78
2022/10/07 23:14:28;;;;;;;14.18;6.13;;;14.20;65.90;;;;;;7374236;19;20031;-78
2022/10/07 23:16:57;;;;;;;15.32;6.13;;;14.10;66.10;;;;;;7377963;19;20022;-78
2022/10/07 23:19:26;;;;;;;18.08;5.93;;;14.10;66.20;;;;;;7384888;19;20022;-79
2022/10/07 23:21:55;;;;;;;18.40;6.00;;;14.10;66.20;;;;;;7405897;19;20046;-77
2022/10/07 23:24:25;;;;;;;21.13;6.07;;;14.10;66.40;;;;;;7380280;19;20038;-79
2022/10/07 23:26:57;;;;;;;15.45;5.75;;;14.00;66.20;;;;;;7377126;19;20014;-80
2022/10/07 23:29:26;;;;;;;14.50;5.30;;;14.00;66.30;;;;;;7375119;19;20057;-79
2022/10/07 23:31:55;;;;;;;16.35;5.57;;;14.00;66.50;;;;;;7374686;19;20018;-78
2022/10/07 23:34:24;;;;;;;15.90;5.75;;;14.00;66.30;;;;;;7374633;19;20018;-79
2022/10/07 23:36:54;;;;;;;18.40;5.90;;;14.00;67.00;;;;;;7396207;19;20054;-79
2022/10/07 23:39:23;;;;;;;25.63;5.78;;;14.00;66.30;;;;;;7374256;19;20454;-79
2022/10/07 23:41:52;;;;;;;21.17;6.15;;;14.10;66.30;;;;;;7376482;19;20019;-80
2022/10/07 23:44:26;;;;;;;18.45;5.80;;;14.10;66.10;;;;;;7376355;19;20022;-79
2022/10/07 23:46:55;;;;;;;18.92;6.13;;;14.10;66.00;;;;;;7372666;19;20022;-78
2022/10/07 23:49:24;;;;;;;19.77;5.90;;;14.10;65.80;;;;;;7371982;19;21129;-79
2022/10/07 23:51:52;;;;;;;19.48;6.03;;;14.10;65.60;;;;;;7396999;19;20026;-78
2022/10/07 23:54:22;;;;;;;14.35;5.53;;;14.10;65.40;;;;;;7375512;19;20019;-78
2022/10/07 23:56:53;;;;;;;19.13;5.85;;;14.20;65.20;;;;;;7374527;19;20785;-79
2022/10/07 23:59:25;;;;;;;17.08;5.63;;;14.10;65.10;;;;;;7375705;19;20078;-79
